sensor_id;sensor_type;location;lat;lon;timestamp;P1;durP1;ratioP1;P2;durP2;ratioP2
16626;SDS011;8427;52.204;7.202;2023-04-16T00:00:54;39.40;;;37.30;;
16626;SDS011;8427;52.204;7.202;2023-04-16T00:03:22;40.63;;;38.22;;
16626;SDS011;8427;52.204;7.202;2023-04-16T00:05:52;40.60;;;38.20;;
16626;SDS011;8427;52.204;7.202;2023-04-16T00:08:21;40.50;;;38.10;;
16626;SDS011;8427;52.204;7.202;2023-04-16T00:10:52;40.90;;;38.40;;
16626;SDS011;8427;52.204;7.202;2023-04-16T00:13:20;40.42;;;38.03;;
16626;SDS011;8427;52.204;7.202;2023-04-16T00:15:48;40.70;;;38.30;;
16626;SDS011;8427;52.204;7.202;2023-04-16T00:18:16;40.63;;;38.22;;
16626;SDS011;8427;52.204;7.202;2023-04-16T00:20:46;41.20;;;38.60;;
16626;SDS011;8427;52.204;7.202;2023-04-16T00:23:14;41.08;;;38.50;;
16626;SDS011;8427;52.204;7.202;2023-04-16T00:25:42;37.93;;;35.90;;
16626;SDS011;8427;52.204;7.202;2023-04-16T00:28:11;37.63;;;35.53;;
16626;SDS011;8427;52.204;7.202;2023-04-16T00:30:39;38.10;;;35.90;;
16626;SDS011;8427;52.204;7.202;2023-04-16T00:33:07;38.70;;;36.27;;
16626;SDS011;8427;52.204;7.202;2023-04-16T00:35:35;38.70;;;36.20;;
16626;SDS011;8427;52.204;7.202;2023-04-16T00:38:03;38.25;;;36.05;;
16626;SDS011;8427;52.204;7.202;2023-04-16T00:40:31;38.43;;;36.10;;
16626;SDS011;8427;52.204;7.202;2023-04-16T00:42:59;39.22;;;36.92;;
16626;SDS011;8427;52.204;7.202;2023-04-16T00:45:28;36.77;;;34.83;;
16626;SDS011;8427;52.204;7.202;2023-04-16T00:47:56;36.70;;;35.00;;
16626;SDS011;8427;52.204;7.202;2023-04-16T00:50:26;38.30;;;36.30;;
16626;SDS011;8427;52.204;7.202;2023-04-16T00:52:54;39.77;;;37.37;;
16626;SDS011;8427;52.204;7.202;2023-04-16T00:55:23;39.50;;;37.30;;
16626;SDS011;8427;52.204;7.202;2023-04-16T00:57:51;38.30;;;36.13;;
16626;SDS011;8427;52.204;7.202;2023-04-16T01:00:19;38.73;;;36.63;;
16626;SDS011;8427;52.204;7.202;2023-04-16T01:02:49;37.70;;;35.60;;
16626;SDS011;8427;52.204;7.202;2023-04-16T01:05:17;38.45;;;36.22;;
16626;SDS011;8427;52.204;7.202;2023-04-16T01:07:45;38.53;;;36.17;;
16626;SDS011;8427;52.204;7.202;2023-04-16T01:10:13;36.60;;;34.60;;
16626;SDS011;8427;52.204;7.202;2023-04-16T01:12:41;41.03;;;38.33;;
16626;SDS011;8427;52.204;7.202;2023-04-16T01:15:09;39.17;;;37.03;;
16626;SDS011;8427;52.204;7.202;2023-04-16T01:17:37;39.88;;;37.47;;
16626;SDS011;8427;52.204;7.202;2023-04-16T01:20:07;39.40;;;37.10;;
16626;SDS011;8427;52.204;7.202;2023-04-16T01:22:37;37.70;;;35.60;;
16626;SDS011;8427;52.204;7.202;2023-04-16T01:25:05;39.47;;;37.17;;
16626;SDS011;8427;52.204;7.202;2023-04-16T01:27:33;38.90;;;36.53;;
16626;SDS011;8427;52.204;7.202;2023-04-16T01:30:03;37.60;;;35.50;;
16626;SDS011;8427;52.204;7.202;2023-04-16T01:32:32;37.57;;;35.43;;
16626;SDS011;8427;52.204;7.202;2023-04-16T01:35:00;36.97;;;34.90;;
16626;SDS011;8427;52.204;7.202;2023-04-16T01:37:28;37.23;;;35.10;;
16626;SDS011;8427;52.204;7.202;2023-04-16T01:39:58;38.30;;;36.00;;
16626;SDS011;8427;52.204;7.202;2023-04-16T01:42:26;41.72;;;38.83;;
16626;SDS011;8427;52.204;7.202;2023-04-16T01:44:54;36.33;;;34.53;;
16626;SDS011;8427;52.204;7.202;2023-04-16T01:47:22;38.70;;;36.35;;
16626;SDS011;8427;52.204;7.202;2023-04-16T01:49:50;37.72;;;35.63;;
16626;SDS011;8427;52.204;7.202;2023-04-16T01:52:18;39.05;;;36.85;;
16626;SDS011;8427;52.204;7.202;2023-04-16T01:54:46;39.80;;;37.40;;
16626;SDS011;8427;52.204;7.202;2023-04-16T01:57:15;36.92;;;35.03;;
16626;SDS011;8427;52.204;7.202;2023-04-16T01:59:43;36.10;;;34.27;;
16626;SDS011;8427;52.204;7.202;2023-04-16T02:02:12;37.57;;;35.40;;
16626;SDS011;8427;52.204;7.202;2023-04-16T02:04:42;37.07;;;34.93;;
16626;SDS011;8427;52.204;7.202;2023-04-16T02:07:11;36.63;;;34.67;;
16626;SDS011;8427;52.204;7.202;2023-04-16T02:09:39;35.67;;;33.77;;
16626;SDS011;8427;52.204;7.202;2023-04-16T02:12:07;38.70;;;36.50;;
16626;SDS011;8427;52.204;7.202;2023-04-16T02:14:38;38.30;;;36.30;;
16626;SDS011;8427;52.204;7.202;2023-04-16T02:17:06;39.67;;;37.28;;
16626;SDS011;8427;52.204;7.202;2023-04-16T02:19:34;38.15;;;36.00;;
16626;SDS011;8427;52.204;7.202;2023-04-16T02:22:02;41.35;;;38.45;;
16626;SDS011;8427;52.204;7.202;2023-04-16T02:24:30;38.95;;;36.75;;
16626;SDS011;8427;52.204;7.202;2023-04-16T02:26:58;37.30;;;35.53;;
16626;SDS011;8427;52.204;7.202;2023-04-16T02:29:26;37.83;;;35.73;;
16626;SDS011;8427;52.204;7.202;2023-04-16T02:31:55;41.43;;;38.60;;
16626;SDS011;8427;52.204;7.202;2023-04-16T02:34:24;39.77;;;37.37;;
16626;SDS011;8427;52.204;7.202;2023-04-16T02:36:52;39.60;;;37.30;;
16626;SDS011;8427;52.204;7.202;2023-04-16T02:39:20;38.03;;;35.83;;
16626;SDS011;8427;52.204;7.202;2023-04-16T02:41:48;37.20;;;35.40;;
16626;SDS011;8427;52.204;7.202;2023-04-16T02:44:16;39.90;;;37.50;;
16626;SDS011;8427;52.204;7.202;2023-04-16T02:46:44;40.55;;;38.05;;
16626;SDS011;8427;52.204;7.202;2023-04-16T02:49:14;40.80;;;38.30;;
16626;SDS011;8427;52.204;7.202;2023-04-16T02:51:42;40.35;;;37.95;;
16626;SDS011;8427;52.204;7.202;2023-04-16T02:54:10;40.03;;;37.70;;
16626;SDS011;8427;52.204;7.202;2023-04-16T02:56:37;39.90;;;37.60;;
16626;SDS011;8427;52.204;7.202;2023-04-16T02:59:05;40.90;;;38.30;;
16626;SDS011;8427;52.204;7.202;2023-04-16T03:01:34;39.80;;;37.40;;
16626;SDS011;8427;52.204;7.202;2023-04-16T03:04:02;39.78;;;37.47;;
16626;SDS011;8427;52.204;7.202;2023-04-16T03:06:31;38.38;;;36.17;;
16626;SDS011;8427;52.204;7.202;2023-04-16T03:08:59;40.40;;;38.00;;
16626;SDS011;8427;52.204;7.202;2023-04-16T03:11:27;40.90;;;38.40;;
16626;SDS011;8427;52.204;7.202;2023-04-16T03:13:55;41.20;;;38.60;;
16626;SDS011;8427;52.204;7.202;2023-04-16T03:16:23;41.38;;;38.75;;
16626;SDS011;8427;52.204;7.202;2023-04-16T03:18:51;41.08;;;38.40;;
16626;SDS011;8427;52.204;7.202;2023-04-16T03:21:19;40.70;;;38.25;;
16626;SDS011;8427;52.204;7.202;2023-04-16T03:23:48;38.47;;;36.27;;
16626;SDS011;8427;52.204;7.202;2023-04-16T03:26:18;39.20;;;36.85;;
16626;SDS011;8427;52.204;7.202;2023-04-16T03:28:46;41.23;;;38.57;;
16626;SDS011;8427;52.204;7.202;2023-04-16T03:31:14;39.75;;;37.42;;
16626;SDS011;8427;52.204;7.202;2023-04-16T03:33:42;39.85;;;37.45;;
16626;SDS011;8427;52.204;7.202;2023-04-16T03:36:10;38.63;;;36.53;;
16626;SDS011;8427;52.204;7.202;2023-04-16T03:38:39;40.67;;;38.17;;
16626;SDS011;8427;52.204;7.202;2023-04-16T03:41:08;41.17;;;38.58;;
16626;SDS011;8427;52.204;7.202;2023-04-16T03:43:36;41.37;;;38.73;;
16626;SDS011;8427;52.204;7.202;2023-04-16T03:46:04;39.30;;;37.20;;
16626;SDS011;8427;52.204;7.202;2023-04-16T03:48:32;41.22;;;38.65;;
16626;SDS011;8427;52.204;7.202;2023-04-16T03:51:00;38.53;;;36.63;;
16626;SDS011;8427;52.204;7.202;2023-04-16T03:53:28;41.75;;;39.05;;
16626;SDS011;8427;52.204;7.202;2023-04-16T03:55:56;39.30;;;37.20;;
16626;SDS011;8427;52.204;7.202;2023-04-16T03:58:25;40.67;;;38.17;;
16626;SDS011;8427;52.204;7.202;2023-04-16T04:00:53;41.00;;;38.50;;
16626;SDS011;8427;52.204;7.202;2023-04-16T04:03:21;40.92;;;38.42;;
16626;SDS011;8427;52.204;7.202;2023-04-16T04:05:51;42.30;;;39.50;;
16626;SDS011;8427;52.204;7.202;2023-04-16T04:08:19;42.15;;;39.35;;
16626;SDS011;8427;52.204;7.202;2023-04-16T04:10:47;39.90;;;37.70;;
16626;SDS011;8427;52.204;7.202;2023-04-16T04:13:16;41.30;;;38.70;;
16626;SDS011;8427;52.204;7.202;2023-04-16T04:15:45;41.00;;;38.40;;
16626;SDS011;8427;52.204;7.202;2023-04-16T04:18:13;41.90;;;39.20;;
16626;SDS011;8427;52.204;7.202;2023-04-16T04:20:41;40.53;;;38.28;;
16626;SDS011;8427;52.204;7.202;2023-04-16T04:23:10;41.90;;;39.20;;
16626;SDS011;8427;52.204;7.202;2023-04-16T04:25:38;41.90;;;39.20;;
16626;SDS011;8427;52.204;7.202;2023-04-16T04:28:06;41.85;;;39.17;;
16626;SDS011;8427;52.204;7.202;2023-04-16T04:30:34;41.60;;;39.05;;
16626;SDS011;8427;52.204;7.202;2023-04-16T04:33:03;40.83;;;38.42;;
16626;SDS011;8427;52.204;7.202;2023-04-16T04:35:31;42.20;;;39.30;;
16626;SDS011;8427;52.204;7.202;2023-04-16T04:38:00;42.50;;;39.60;;
16626;SDS011;8427;52.204;7.202;2023-04-16T04:40:28;41.70;;;39.00;;
16626;SDS011;8427;52.204;7.202;2023-04-16T04:42:56;42.08;;;39.33;;
16626;SDS011;8427;52.204;7.202;2023-04-16T04:45:24;42.00;;;39.30;;
16626;SDS011;8427;52.204;7.202;2023-04-16T04:47:52;41.80;;;39.10;;
16626;SDS011;8427;52.204;7.202;2023-04-16T04:50:22;40.40;;;38.10;;
16626;SDS011;8427;52.204;7.202;2023-04-16T04:52:50;42.22;;;39.35;;
16626;SDS011;8427;52.204;7.202;2023-04-16T04:55:18;39.70;;;37.60;;
16626;SDS011;8427;52.204;7.202;2023-04-16T04:57:47;40.42;;;38.13;;
16626;SDS011;8427;52.204;7.202;2023-04-16T05:00:15;42.90;;;40.00;;
16626;SDS011;8427;52.204;7.202;2023-04-16T05:02:43;43.30;;;40.20;;
16626;SDS011;8427;52.204;7.202;2023-04-16T05:05:12;42.40;;;39.60;;
16626;SDS011;8427;52.204;7.202;2023-04-16T05:07:42;41.90;;;39.20;;
16626;SDS011;8427;52.204;7.202;2023-04-16T05:10:10;42.78;;;39.85;;
16626;SDS011;8427;52.204;7.202;2023-04-16T05:12:38;43.80;;;40.60;;
16626;SDS011;8427;52.204;7.202;2023-04-16T05:15:07;42.30;;;39.50;;
16626;SDS011;8427;52.204;7.202;2023-04-16T05:17:35;41.60;;;39.08;;
16626;SDS011;8427;52.204;7.202;2023-04-16T05:20:03;42.30;;;39.50;;
16626;SDS011;8427;52.204;7.202;2023-04-16T05:22:32;43.10;;;40.00;;
16626;SDS011;8427;52.204;7.202;2023-04-16T05:25:01;41.90;;;39.20;;
16626;SDS011;8427;52.204;7.202;2023-04-16T05:27:30;42.50;;;39.70;;
16626;SDS011;8427;52.204;7.202;2023-04-16T05:29:58;41.90;;;39.20;;
16626;SDS011;8427;52.204;7.202;2023-04-16T05:32:26;44.83;;;41.33;;
16626;SDS011;8427;52.204;7.202;2023-04-16T05:34:54;42.80;;;39.90;;
16626;SDS011;8427;52.204;7.202;2023-04-16T05:37:21;41.85;;;39.15;;
16626;SDS011;8427;52.204;7.202;2023-04-16T05:39:49;42.00;;;39.30;;
16626;SDS011;8427;52.204;7.202;2023-04-16T05:42:19;42.92;;;40.03;;
16626;SDS011;8427;52.204;7.202;2023-04-16T05:44:47;42.08;;;39.38;;
16626;SDS011;8427;52.204;7.202;2023-04-16T05:47:15;41.60;;;39.00;;
16626;SDS011;8427;52.204;7.202;2023-04-16T05:49:43;40.20;;;38.00;;
16626;SDS011;8427;52.204;7.202;2023-04-16T05:52:10;42.42;;;39.53;;
16626;SDS011;8427;52.204;7.202;2023-04-16T05:54:39;42.70;;;39.80;;
16626;SDS011;8427;52.204;7.202;2023-04-16T05:57:06;42.40;;;39.60;;
16626;SDS011;8427;52.204;7.202;2023-04-16T05:59:36;41.08;;;38.67;;
16626;SDS011;8427;52.204;7.202;2023-04-16T06:02:04;43.25;;;40.17;;
16626;SDS011;8427;52.204;7.202;2023-04-16T06:04:33;44.00;;;40.70;;
16626;SDS011;8427;52.204;7.202;2023-04-16T06:07:02;43.30;;;40.30;;
16626;SDS011;8427;52.204;7.202;2023-04-16T06:09:30;42.60;;;39.80;;
16626;SDS011;8427;52.204;7.202;2023-04-16T06:11:58;44.73;;;41.33;;
16626;SDS011;8427;52.204;7.202;2023-04-16T06:14:26;43.00;;;40.10;;
16626;SDS011;8427;52.204;7.202;2023-04-16T06:16:56;43.00;;;40.10;;
16626;SDS011;8427;52.204;7.202;2023-04-16T06:19:23;42.95;;;40.05;;
16626;SDS011;8427;52.204;7.202;2023-04-16T06:21:52;43.67;;;40.53;;
16626;SDS011;8427;52.204;7.202;2023-04-16T06:24:20;43.40;;;40.40;;
16626;SDS011;8427;52.204;7.202;2023-04-16T06:26:48;43.75;;;40.58;;
16626;SDS011;8427;52.204;7.202;2023-04-16T06:29:16;41.58;;;39.08;;
16626;SDS011;8427;52.204;7.202;2023-04-16T06:31:44;43.20;;;40.20;;
16626;SDS011;8427;52.204;7.202;2023-04-16T06:34:14;42.30;;;39.63;;
16626;SDS011;8427;52.204;7.202;2023-04-16T06:36:42;43.30;;;40.30;;
16626;SDS011;8427;52.204;7.202;2023-04-16T06:39:10;43.08;;;40.17;;
16626;SDS011;8427;52.204;7.202;2023-04-16T06:41:38;43.80;;;40.70;;
16626;SDS011;8427;52.204;7.202;2023-04-16T06:44:06;43.60;;;40.50;;
16626;SDS011;8427;52.204;7.202;2023-04-16T06:46:34;42.83;;;39.97;;
16626;SDS011;8427;52.204;7.202;2023-04-16T06:49:03;44.17;;;40.97;;
16626;SDS011;8427;52.204;7.202;2023-04-16T06:51:32;43.22;;;40.22;;
16626;SDS011;8427;52.204;7.202;2023-04-16T06:54:00;43.20;;;40.20;;
16626;SDS011;8427;52.204;7.202;2023-04-16T06:56:28;44.08;;;40.78;;
16626;SDS011;8427;52.204;7.202;2023-04-16T06:58:57;44.00;;;40.80;;
16626;SDS011;8427;52.204;7.202;2023-04-16T07:01:26;43.30;;;40.30;;
16626;SDS011;8427;52.204;7.202;2023-04-16T07:03:56;43.88;;;40.67;;
16626;SDS011;8427;52.204;7.202;2023-04-16T07:06:24;43.90;;;40.70;;
16626;SDS011;8427;52.204;7.202;2023-04-16T07:08:54;43.70;;;40.60;;
16626;SDS011;8427;52.204;7.202;2023-04-16T07:11:22;43.70;;;40.60;;
16626;SDS011;8427;52.204;7.202;2023-04-16T07:13:52;42.90;;;40.00;;
16626;SDS011;8427;52.204;7.202;2023-04-16T07:16:21;43.67;;;40.58;;
16626;SDS011;8427;52.204;7.202;2023-04-16T07:18:49;43.15;;;40.22;;
16626;SDS011;8427;52.204;7.202;2023-04-16T07:21:17;43.80;;;40.70;;
16626;SDS011;8427;52.204;7.202;2023-04-16T07:23:46;43.55;;;40.50;;
16626;SDS011;8427;52.204;7.202;2023-04-16T07:26:15;44.17;;;40.88;;
16626;SDS011;8427;52.204;7.202;2023-04-16T07:28:43;44.42;;;41.15;;
16626;SDS011;8427;52.204;7.202;2023-04-16T07:31:11;43.88;;;40.78;;
16626;SDS011;8427;52.204;7.202;2023-04-16T07:33:39;43.00;;;40.20;;
16626;SDS011;8427;52.204;7.202;2023-04-16T07:36:07;45.20;;;41.70;;
16626;SDS011;8427;52.204;7.202;2023-04-16T07:38:36;45.45;;;41.83;;
16626;SDS011;8427;52.204;7.202;2023-04-16T07:41:04;44.95;;;41.45;;
16626;SDS011;8427;52.204;7.202;2023-04-16T07:43:33;43.97;;;40.85;;
16626;SDS011;8427;52.204;7.202;2023-04-16T07:46:01;45.00;;;41.60;;
16626;SDS011;8427;52.204;7.202;2023-04-16T07:48:30;45.78;;;42.13;;
16626;SDS011;8427;52.204;7.202;2023-04-16T07:50:58;45.30;;;41.80;;
16626;SDS011;8427;52.204;7.202;2023-04-16T07:53:26;45.40;;;41.80;;
16626;SDS011;8427;52.204;7.202;2023-04-16T07:55:54;44.80;;;41.40;;
16626;SDS011;8427;52.204;7.202;2023-04-16T07:58:22;45.42;;;41.80;;
16626;SDS011;8427;52.204;7.202;2023-04-16T08:00:51;46.10;;;42.30;;
16626;SDS011;8427;52.204;7.202;2023-04-16T08:03:19;43.97;;;40.92;;
16626;SDS011;8427;52.204;7.202;2023-04-16T08:05:47;46.15;;;42.35;;
16626;SDS011;8427;52.204;7.202;2023-04-16T08:08:15;44.45;;;40.95;;
16626;SDS011;8427;52.204;7.202;2023-04-16T08:10:43;45.20;;;41.70;;
16626;SDS011;8427;52.204;7.202;2023-04-16T08:13:11;45.40;;;41.80;;
16626;SDS011;8427;52.204;7.202;2023-04-16T08:15:39;45.80;;;42.10;;
16626;SDS011;8427;52.204;7.202;2023-04-16T08:18:09;46.00;;;42.10;;
16626;SDS011;8427;52.204;7.202;2023-04-16T08:20:40;45.42;;;41.83;;
16626;SDS011;8427;52.204;7.202;2023-04-16T08:23:08;46.37;;;42.50;;
16626;SDS011;8427;52.204;7.202;2023-04-16T08:25:36;46.20;;;42.40;;
16626;SDS011;8427;52.204;7.202;2023-04-16T08:28:04;46.10;;;42.30;;
16626;SDS011;8427;52.204;7.202;2023-04-16T08:30:32;44.90;;;41.40;;
16626;SDS011;8427;52.204;7.202;2023-04-16T08:33:00;44.45;;;41.25;;
16626;SDS011;8427;52.204;7.202;2023-04-16T08:35:30;46.05;;;42.25;;
16626;SDS011;8427;52.204;7.202;2023-04-16T08:37:58;44.58;;;41.17;;
16626;SDS011;8427;52.204;7.202;2023-04-16T08:40:28;45.97;;;42.08;;
16626;SDS011;8427;52.204;7.202;2023-04-16T08:42:57;46.30;;;42.30;;
16626;SDS011;8427;52.204;7.202;2023-04-16T08:45:26;45.30;;;41.60;;
16626;SDS011;8427;52.204;7.202;2023-04-16T08:47:54;44.65;;;41.05;;
16626;SDS011;8427;52.204;7.202;2023-04-16T08:50:23;44.43;;;41.20;;
16626;SDS011;8427;52.204;7.202;2023-04-16T08:52:57;46.80;;;42.70;;
16626;SDS011;8427;52.204;7.202;2023-04-16T08:55:29;46.50;;;42.60;;
16626;SDS011;8427;52.204;7.202;2023-04-16T08:58:03;46.40;;;42.50;;
16626;SDS011;8427;52.204;7.202;2023-04-16T09:00:34;46.70;;;42.70;;
16626;SDS011;8427;52.204;7.202;2023-04-16T09:03:06;46.10;;;42.30;;
16626;SDS011;8427;52.204;7.202;2023-04-16T09:05:35;46.78;;;42.80;;
16626;SDS011;8427;52.204;7.202;2023-04-16T09:08:06;46.40;;;42.60;;
16626;SDS011;8427;52.204;7.202;2023-04-16T09:10:34;48.40;;;43.60;;
16626;SDS011;8427;52.204;7.202;2023-04-16T09:13:02;47.47;;;43.28;;
16626;SDS011;8427;52.204;7.202;2023-04-16T09:15:30;47.80;;;43.40;;
16626;SDS011;8427;52.204;7.202;2023-04-16T09:18:00;48.15;;;43.75;;
16626;SDS011;8427;52.204;7.202;2023-04-16T09:20:28;46.70;;;42.80;;
16626;SDS011;8427;52.204;7.202;2023-04-16T09:22:56;48.17;;;43.55;;
16626;SDS011;8427;52.204;7.202;2023-04-16T09:25:25;47.50;;;43.30;;
16626;SDS011;8427;52.204;7.202;2023-04-16T09:27:54;48.10;;;43.70;;
16626;SDS011;8427;52.204;7.202;2023-04-16T09:30:22;48.30;;;43.80;;
16626;SDS011;8427;52.204;7.202;2023-04-16T09:33:07;49.90;;;44.50;;
16626;SDS011;8427;52.204;7.202;2023-04-16T09:35:44;48.80;;;44.10;;
16626;SDS011;8427;52.204;7.202;2023-04-16T09:38:13;47.70;;;43.50;;
16626;SDS011;8427;52.204;7.202;2023-04-16T09:40:42;48.40;;;43.90;;
16626;SDS011;8427;52.204;7.202;2023-04-16T09:43:13;49.00;;;44.10;;
16626;SDS011;8427;52.204;7.202;2023-04-16T09:45:48;48.60;;;43.90;;
16626;SDS011;8427;52.204;7.202;2023-04-16T09:48:26;48.58;;;44.00;;
16626;SDS011;8427;52.204;7.202;2023-04-16T09:50:55;48.50;;;43.90;;
16626;SDS011;8427;52.204;7.202;2023-04-16T09:53:23;47.55;;;43.55;;
16626;SDS011;8427;52.204;7.202;2023-04-16T09:55:54;48.80;;;44.20;;
16626;SDS011;8427;52.204;7.202;2023-04-16T09:58:22;48.72;;;44.13;;
16626;SDS011;8427;52.204;7.202;2023-04-16T10:00:54;49.30;;;44.40;;
16626;SDS011;8427;52.204;7.202;2023-04-16T10:03:29;47.60;;;43.60;;
16626;SDS011;8427;52.204;7.202;2023-04-16T10:05:58;47.42;;;43.53;;
16626;SDS011;8427;52.204;7.202;2023-04-16T10:16:57;48.70;;;44.20;;
16626;SDS011;8427;52.204;7.202;2023-04-16T10:19:25;49.20;;;44.40;;
16626;SDS011;8427;52.204;7.202;2023-04-16T10:21:53;49.90;;;44.70;;
16626;SDS011;8427;52.204;7.202;2023-04-16T10:24:21;49.00;;;44.30;;
16626;SDS011;8427;52.204;7.202;2023-04-16T10:26:51;48.58;;;44.17;;
16626;SDS011;8427;52.204;7.202;2023-04-16T10:29:19;48.38;;;44.00;;
16626;SDS011;8427;52.204;7.202;2023-04-16T10:31:48;48.10;;;43.80;;
16626;SDS011;8427;52.204;7.202;2023-04-16T10:34:18;49.40;;;44.60;;
16626;SDS011;8427;52.204;7.202;2023-04-16T10:36:47;48.60;;;44.20;;
16626;SDS011;8427;52.204;7.202;2023-04-16T10:39:16;49.58;;;44.67;;
16626;SDS011;8427;52.204;7.202;2023-04-16T10:41:46;49.53;;;44.63;;
16626;SDS011;8427;52.204;7.202;2023-04-16T10:44:15;48.90;;;44.50;;
16626;SDS011;8427;52.204;7.202;2023-04-16T10:46:45;48.40;;;44.10;;
16626;SDS011;8427;52.204;7.202;2023-04-16T10:49:15;49.17;;;44.50;;
16626;SDS011;8427;52.204;7.202;2023-04-16T10:51:52;49.80;;;44.90;;
16626;SDS011;8427;52.204;7.202;2023-04-16T10:54:25;49.45;;;44.65;;
16626;SDS011;8427;52.204;7.202;2023-04-16T10:56:55;49.75;;;44.85;;
16626;SDS011;8427;52.204;7.202;2023-04-16T10:59:24;49.47;;;44.70;;
16626;SDS011;8427;52.204;7.202;2023-04-16T11:01:57;51.30;;;45.20;;
16626;SDS011;8427;52.204;7.202;2023-04-16T11:04:36;49.80;;;44.80;;
16626;SDS011;8427;52.204;7.202;2023-04-16T11:07:10;49.65;;;44.78;;
16626;SDS011;8427;52.204;7.202;2023-04-16T11:09:52;49.30;;;44.60;;
16626;SDS011;8427;52.204;7.202;2023-04-16T11:12:22;52.10;;;45.10;;
16626;SDS011;8427;52.204;7.202;2023-04-16T11:14:53;49.80;;;44.80;;
16626;SDS011;8427;52.204;7.202;2023-04-16T11:17:27;49.80;;;45.00;;
16626;SDS011;8427;52.204;7.202;2023-04-16T11:19:55;49.63;;;44.80;;
16626;SDS011;8427;52.204;7.202;2023-04-16T11:22:24;49.90;;;44.80;;
16626;SDS011;8427;52.204;7.202;2023-04-16T11:24:54;47.92;;;43.83;;
16626;SDS011;8427;52.204;7.202;2023-04-16T11:27:22;49.78;;;44.88;;
16626;SDS011;8427;52.204;7.202;2023-04-16T11:29:58;50.00;;;45.00;;
16626;SDS011;8427;52.204;7.202;2023-04-16T11:32:30;51.13;;;45.10;;
16626;SDS011;8427;52.204;7.202;2023-04-16T11:34:59;49.50;;;44.50;;
16626;SDS011;8427;52.204;7.202;2023-04-16T11:37:34;48.90;;;44.40;;
16626;SDS011;8427;52.204;7.202;2023-04-16T11:40:03;49.17;;;44.47;;
16626;SDS011;8427;52.204;7.202;2023-04-16T11:42:33;48.50;;;44.10;;
16626;SDS011;8427;52.204;7.202;2023-04-16T11:45:03;48.83;;;44.30;;
16626;SDS011;8427;52.204;7.202;2023-04-16T11:47:31;48.88;;;44.28;;
16626;SDS011;8427;52.204;7.202;2023-04-16T11:50:18;48.30;;;44.00;;
16626;SDS011;8427;52.204;7.202;2023-04-16T12:22:17;49.00;;;44.45;;
16626;SDS011;8427;52.204;7.202;2023-04-16T12:24:54;49.65;;;44.80;;
16626;SDS011;8427;52.204;7.202;2023-04-16T12:27:23;48.90;;;44.20;;
16626;SDS011;8427;52.204;7.202;2023-04-16T12:30:03;49.20;;;44.60;;
16626;SDS011;8427;52.204;7.202;2023-04-16T12:32:32;50.10;;;44.80;;
16626;SDS011;8427;52.204;7.202;2023-04-16T12:35:00;49.13;;;44.40;;
16626;SDS011;8427;52.204;7.202;2023-04-16T12:37:29;48.50;;;44.10;;
16626;SDS011;8427;52.204;7.202;2023-04-16T12:39:57;49.20;;;44.50;;
16626;SDS011;8427;52.204;7.202;2023-04-16T12:42:25;51.08;;;45.13;;
16626;SDS011;8427;52.204;7.202;2023-04-16T12:44:58;49.10;;;44.50;;
16626;SDS011;8427;52.204;7.202;2023-04-16T12:47:26;49.50;;;44.60;;
16626;SDS011;8427;52.204;7.202;2023-04-16T12:49:54;49.40;;;44.60;;
16626;SDS011;8427;52.204;7.202;2023-04-16T12:52:22;49.97;;;44.88;;
16626;SDS011;8427;52.204;7.202;2023-04-16T12:54:52;49.30;;;44.50;;
16626;SDS011;8427;52.204;7.202;2023-04-16T12:57:20;48.60;;;44.20;;
16626;SDS011;8427;52.204;7.202;2023-04-16T12:59:53;47.95;;;43.90;;
16626;SDS011;8427;52.204;7.202;2023-04-16T13:02:22;51.20;;;44.90;;
16626;SDS011;8427;52.204;7.202;2023-04-16T13:04:51;49.53;;;44.77;;
16626;SDS011;8427;52.204;7.202;2023-04-16T13:07:20;49.42;;;44.53;;
16626;SDS011;8427;52.204;7.202;2023-04-16T13:09:49;49.30;;;44.50;;
16626;SDS011;8427;52.204;7.202;2023-04-16T13:12:18;52.10;;;45.20;;
16626;SDS011;8427;52.204;7.202;2023-04-16T13:14:46;49.00;;;44.30;;
16626;SDS011;8427;52.204;7.202;2023-04-16T13:17:14;49.78;;;44.80;;
16626;SDS011;8427;52.204;7.202;2023-04-16T13:19:42;49.10;;;44.40;;
16626;SDS011;8427;52.204;7.202;2023-04-16T13:22:10;50.13;;;44.80;;
16626;SDS011;8427;52.204;7.202;2023-04-16T13:24:39;49.60;;;44.70;;
16626;SDS011;8427;52.204;7.202;2023-04-16T13:27:08;49.53;;;44.80;;
16626;SDS011;8427;52.204;7.202;2023-04-16T13:29:37;49.33;;;44.60;;
16626;SDS011;8427;52.204;7.202;2023-04-16T13:32:05;50.70;;;45.20;;
16626;SDS011;8427;52.204;7.202;2023-04-16T13:34:33;49.50;;;44.70;;
16626;SDS011;8427;52.204;7.202;2023-04-16T13:37:01;49.50;;;44.60;;
16626;SDS011;8427;52.204;7.202;2023-04-16T13:39:29;48.60;;;44.30;;
16626;SDS011;8427;52.204;7.202;2023-04-16T13:41:57;48.70;;;44.30;;
16626;SDS011;8427;52.204;7.202;2023-04-16T13:44:25;48.90;;;44.50;;
16626;SDS011;8427;52.204;7.202;2023-04-16T13:46:55;48.50;;;44.30;;
16626;SDS011;8427;52.204;7.202;2023-04-16T13:49:23;49.00;;;44.60;;
16626;SDS011;8427;52.204;7.202;2023-04-16T13:51:51;50.80;;;45.40;;
16626;SDS011;8427;52.204;7.202;2023-04-16T13:54:19;50.00;;;45.10;;
16626;SDS011;8427;52.204;7.202;2023-04-16T13:56:48;49.63;;;44.83;;
16626;SDS011;8427;52.204;7.202;2023-04-16T13:59:16;49.20;;;44.70;;
16626;SDS011;8427;52.204;7.202;2023-04-16T14:01:45;49.78;;;44.92;;
16626;SDS011;8427;52.204;7.202;2023-04-16T14:04:14;49.92;;;45.00;;
16626;SDS011;8427;52.204;7.202;2023-04-16T14:06:42;49.63;;;44.83;;
16626;SDS011;8427;52.204;7.202;2023-04-16T14:09:10;49.58;;;44.78;;
16626;SDS011;8427;52.204;7.202;2023-04-16T14:11:38;49.50;;;44.70;;
16626;SDS011;8427;52.204;7.202;2023-04-16T14:14:06;47.88;;;43.88;;
16626;SDS011;8427;52.204;7.202;2023-04-16T14:16:34;48.80;;;44.30;;
16626;SDS011;8427;52.204;7.202;2023-04-16T14:19:02;48.80;;;44.30;;
16626;SDS011;8427;52.204;7.202;2023-04-16T14:21:31;49.30;;;44.60;;
16626;SDS011;8427;52.204;7.202;2023-04-16T14:23:59;49.30;;;44.45;;
16626;SDS011;8427;52.204;7.202;2023-04-16T14:26:27;51.00;;;45.07;;
16626;SDS011;8427;52.204;7.202;2023-04-16T14:31:26;49.70;;;44.80;;
16626;SDS011;8427;52.204;7.202;2023-04-16T14:33:54;49.50;;;44.70;;
16626;SDS011;8427;52.204;7.202;2023-04-16T14:36:22;50.00;;;45.00;;
16626;SDS011;8427;52.204;7.202;2023-04-16T14:38:51;48.85;;;44.55;;
16626;SDS011;8427;52.204;7.202;2023-04-16T14:41:19;49.80;;;45.00;;
16626;SDS011;8427;52.204;7.202;2023-04-16T14:43:47;49.10;;;44.70;;
16626;SDS011;8427;52.204;7.202;2023-04-16T14:46:15;49.60;;;44.80;;
16626;SDS011;8427;52.204;7.202;2023-04-16T14:48:43;50.43;;;45.13;;
16626;SDS011;8427;52.204;7.202;2023-04-16T14:51:11;50.20;;;45.20;;
16626;SDS011;8427;52.204;7.202;2023-04-16T14:53:39;50.22;;;45.22;;
16626;SDS011;8427;52.204;7.202;2023-04-16T14:56:08;50.10;;;45.15;;
16626;SDS011;8427;52.204;7.202;2023-04-16T14:58:38;50.37;;;45.20;;
16626;SDS011;8427;52.204;7.202;2023-04-16T15:01:07;49.38;;;44.88;;
16626;SDS011;8427;52.204;7.202;2023-04-16T15:03:36;49.90;;;45.10;;
16626;SDS011;8427;52.204;7.202;2023-04-16T15:06:04;50.22;;;45.17;;
16626;SDS011;8427;52.204;7.202;2023-04-16T15:08:32;49.90;;;45.10;;
16626;SDS011;8427;52.204;7.202;2023-04-16T15:11:00;50.00;;;45.10;;
16626;SDS011;8427;52.204;7.202;2023-04-16T15:13:30;49.70;;;45.00;;
16626;SDS011;8427;52.204;7.202;2023-04-16T15:15:59;49.30;;;44.80;;
16626;SDS011;8427;52.204;7.202;2023-04-16T15:18:27;49.20;;;44.65;;
16626;SDS011;8427;52.204;7.202;2023-04-16T15:20:56;48.90;;;44.60;;
16626;SDS011;8427;52.204;7.202;2023-04-16T15:23:24;49.20;;;44.70;;